AUA753Y LOWW-LATI
Flight info
| Callsign | AUA753Y |
|---|---|
| Flight time | 1h 9m |
| Altitude | 35000 |
| Route | ARSIN DCT NALOX DCT OSDUK DCT VIBOP DCT AKIKA DCT INLOT |
| Aircraft | A321/M-SDE3FGHIRWY/LB1 |
Departure
| Time | 2026-05-05 03:05 |
|---|---|
| Airport | Vienna International Airport (LOWW) |
Arrival
| Time | 2026-05-05 04:14 |
|---|---|
| Airport | Tirana International Airport Mother Teresa (LATI) |
| Time | Latitude | Longitude | Altitude | Speed | Heading |
|---|---|---|---|---|---|
| 2026-05-05 02:36 | 48.11761 | 16.56625 | 621 ft | 0 kts | 26° |
| 2026-05-05 02:51 | 48.11760 | 16.56624 | 626 ft | 3 kts | 26° |
| 2026-05-05 02:51 | 48.11742 | 16.56611 | 612 ft | 3 kts | 25° |
| 2026-05-05 02:52 | 48.11723 | 16.56598 | 619 ft | 3 kts | 26° |
| 2026-05-05 02:52 | 48.11707 | 16.56579 | 622 ft | 3 kts | 69° |
| 2026-05-05 02:52 | 48.11705 | 16.56549 | 622 ft | 3 kts | 114° |
| 2026-05-05 02:52 | 48.11705 | 16.56547 | 622 ft | 0 kts | 117° |
| 2026-05-05 02:57 | 48.11704 | 16.56552 | 609 ft | 2 kts | 117° |
| 2026-05-05 02:58 | 48.11692 | 16.56583 | 613 ft | 5 kts | 120° |
| 2026-05-05 02:58 | 48.11668 | 16.56644 | 620 ft | 8 kts | 118° |
| 2026-05-05 02:58 | 48.11637 | 16.56738 | 615 ft | 12 kts | 116° |
| 2026-05-05 02:58 | 48.11596 | 16.56863 | 622 ft | 14 kts | 115° |
| 2026-05-05 02:59 | 48.11558 | 16.56986 | 618 ft | 12 kts | 115° |
| 2026-05-05 02:59 | 48.11522 | 16.57097 | 622 ft | 12 kts | 116° |
| 2026-05-05 02:59 | 48.11486 | 16.57203 | 621 ft | 11 kts | 116° |
| 2026-05-05 02:59 | 48.11452 | 16.57305 | 623 ft | 11 kts | 116° |
| 2026-05-05 03:00 | 48.11438 | 16.57403 | 620 ft | 10 kts | 71° |
| 2026-05-05 03:00 | 48.11485 | 16.57460 | 611 ft | 9 kts | 29° |
| 2026-05-05 03:00 | 48.11535 | 16.57501 | 623 ft | 8 kts | 29° |
| 2026-05-05 03:00 | 48.11578 | 16.57537 | 623 ft | 7 kts | 26° |
| 2026-05-05 03:01 | 48.11620 | 16.57549 | 619 ft | 6 kts | 359° |
| 2026-05-05 03:01 | 48.11658 | 16.57536 | 621 ft | 6 kts | 345° |
| 2026-05-05 03:01 | 48.11697 | 16.57519 | 617 ft | 6 kts | 342° |
| 2026-05-05 03:01 | 48.11751 | 16.57494 | 622 ft | 10 kts | 343° |
| 2026-05-05 03:02 | 48.11822 | 16.57508 | 625 ft | 11 kts | 43° |
| 2026-05-05 03:02 | 48.11877 | 16.57571 | 617 ft | 10 kts | 11° |
| 2026-05-05 03:02 | 48.11939 | 16.57560 | 618 ft | 8 kts | 358° |
| 2026-05-05 03:02 | 48.11983 | 16.57607 | 620 ft | 10 kts | 70° |
| 2026-05-05 03:03 | 48.11972 | 16.57730 | 619 ft | 13 kts | 104° |
| 2026-05-05 03:03 | 48.11933 | 16.57833 | 620 ft | 11 kts | 149° |
| 2026-05-05 03:03 | 48.11917 | 16.57841 | 616 ft | 0 kts | 165° |
| 2026-05-05 03:03 | 48.11916 | 16.57841 | 616 ft | 0 kts | 165° |
| 2026-05-05 03:04 | 48.11808 | 16.57886 | 619 ft | 48 kts | 164° |
| 2026-05-05 03:04 | 48.11260 | 16.58124 | 617 ft | 113 kts | 164° |
| 2026-05-05 03:04 | 48.10339 | 16.58521 | 613 ft | 161 kts | 164° |
| 2026-05-05 03:04 | 48.09175 | 16.59007 | 865 ft | 180 kts | 165° |
| 2026-05-05 03:05 | 48.07929 | 16.59488 | 1348 ft | 189 kts | 167° |
| 2026-05-05 03:05 | 48.06635 | 16.59946 | 1877 ft | 192 kts | 171° |
| 2026-05-05 03:05 | 48.05313 | 16.60401 | 2313 ft | 202 kts | 169° |
| 2026-05-05 03:05 | 48.03887 | 16.61011 | 2474 ft | 225 kts | 167° |
| 2026-05-05 03:06 | 48.02304 | 16.61730 | 2815 ft | 247 kts | 166° |
| 2026-05-05 03:06 | 48.00637 | 16.62490 | 3523 ft | 253 kts | 166° |
| 2026-05-05 03:06 | 47.98931 | 16.63214 | 4295 ft | 256 kts | 172° |
| 2026-05-05 03:06 | 47.97152 | 16.63343 | 5040 ft | 258 kts | 184° |
| 2026-05-05 03:07 | 47.95346 | 16.63252 | 5823 ft | 261 kts | 184° |
| 2026-05-05 03:07 | 47.93518 | 16.63138 | 6568 ft | 265 kts | 185° |
| 2026-05-05 03:07 | 47.91695 | 16.63017 | 7284 ft | 268 kts | 184° |
| 2026-05-05 03:07 | 47.89819 | 16.62893 | 8009 ft | 272 kts | 184° |
| 2026-05-05 03:08 | 47.87920 | 16.62770 | 8749 ft | 275 kts | 184° |
| 2026-05-05 03:08 | 47.86000 | 16.62650 | 9468 ft | 278 kts | 184° |
| 2026-05-05 03:08 | 47.84047 | 16.62529 | 10107 ft | 283 kts | 184° |
| 2026-05-05 03:08 | 47.82012 | 16.62399 | 10353 ft | 304 kts | 184° |
| 2026-05-05 03:09 | 47.79827 | 16.62255 | 10491 ft | 325 kts | 184° |
| 2026-05-05 03:09 | 47.77532 | 16.62158 | 10920 ft | 334 kts | 179° |
| 2026-05-05 03:09 | 47.75247 | 16.62651 | 11526 ft | 339 kts | 167° |
| 2026-05-05 03:09 | 47.73024 | 16.63895 | 12195 ft | 344 kts | 156° |
| 2026-05-05 03:10 | 47.70861 | 16.65432 | 12882 ft | 346 kts | 157° |
| 2026-05-05 03:10 | 47.68680 | 16.66971 | 13556 ft | 348 kts | 157° |
| 2026-05-05 03:10 | 47.66485 | 16.68518 | 14171 ft | 350 kts | 157° |
| 2026-05-05 03:10 | 47.64276 | 16.70070 | 14744 ft | 353 kts | 157° |
| 2026-05-05 03:11 | 47.62051 | 16.71627 | 15338 ft | 355 kts | 157° |
| 2026-05-05 03:11 | 47.59811 | 16.73195 | 15924 ft | 357 kts | 157° |
| 2026-05-05 03:11 | 47.57530 | 16.74657 | 16469 ft | 357 kts | 164° |
| 2026-05-05 03:11 | 47.55116 | 16.75491 | 17019 ft | 357 kts | 175° |
| 2026-05-05 03:12 | 47.52640 | 16.75768 | 17564 ft | 358 kts | 178° |
| 2026-05-05 03:12 | 47.50148 | 16.76001 | 18119 ft | 360 kts | 178° |
| 2026-05-05 03:12 | 47.47639 | 16.76237 | 18584 ft | 362 kts | 178° |
| 2026-05-05 03:12 | 47.45112 | 16.76472 | 19006 ft | 366 kts | 178° |
| 2026-05-05 03:13 | 47.42558 | 16.76710 | 19423 ft | 369 kts | 178° |
| 2026-05-05 03:13 | 47.39982 | 16.76953 | 19786 ft | 373 kts | 178° |
| 2026-05-05 03:13 | 47.37377 | 16.77205 | 20149 ft | 377 kts | 178° |
| 2026-05-05 03:13 | 47.34750 | 16.77460 | 20518 ft | 380 kts | 178° |
| 2026-05-05 03:14 | 47.32099 | 16.77714 | 20893 ft | 383 kts | 178° |
| 2026-05-05 03:14 | 47.29430 | 16.77968 | 21267 ft | 386 kts | 178° |
| 2026-05-05 03:14 | 47.26736 | 16.78224 | 21605 ft | 390 kts | 178° |
| 2026-05-05 03:14 | 47.24016 | 16.78483 | 21946 ft | 393 kts | 178° |
| 2026-05-05 03:15 | 47.21277 | 16.78744 | 22311 ft | 396 kts | 178° |
| 2026-05-05 03:15 | 47.18514 | 16.79011 | 22661 ft | 399 kts | 178° |
| 2026-05-05 03:15 | 47.15769 | 16.79280 | 23022 ft | 402 kts | 178° |
| 2026-05-05 03:15 | 47.12970 | 16.79552 | 23381 ft | 405 kts | 178° |
| 2026-05-05 03:16 | 47.10148 | 16.79820 | 23712 ft | 408 kts | 178° |
| 2026-05-05 03:16 | 47.07311 | 16.80087 | 24035 ft | 410 kts | 178° |
| 2026-05-05 03:16 | 47.04457 | 16.80351 | 24373 ft | 412 kts | 178° |
| 2026-05-05 03:16 | 47.01594 | 16.80616 | 24721 ft | 413 kts | 178° |
| 2026-05-05 03:17 | 46.98716 | 16.80884 | 25052 ft | 415 kts | 178° |
| 2026-05-05 03:17 | 46.95826 | 16.81159 | 25378 ft | 418 kts | 178° |
| 2026-05-05 03:17 | 46.92921 | 16.81438 | 25700 ft | 420 kts | 178° |
| 2026-05-05 03:17 | 46.90014 | 16.81977 | 26016 ft | 423 kts | 169° |
| 2026-05-05 03:18 | 46.87187 | 16.83256 | 26336 ft | 428 kts | 159° |
| 2026-05-05 03:18 | 46.84540 | 16.85271 | 26651 ft | 432 kts | 148° |
| 2026-05-05 03:18 | 46.82159 | 16.87966 | 26979 ft | 436 kts | 141° |
| 2026-05-05 03:18 | 46.79862 | 16.90864 | 27298 ft | 437 kts | 141° |
| 2026-05-05 03:19 | 46.75209 | 16.96652 | 27871 ft | 442 kts | 141° |
| 2026-05-05 03:19 | 46.72853 | 16.99555 | 28174 ft | 444 kts | 141° |
| 2026-05-05 03:19 | 46.70491 | 17.02464 | 28482 ft | 446 kts | 141° |
| 2026-05-05 03:20 | 46.68117 | 17.05384 | 28784 ft | 447 kts | 141° |
| 2026-05-05 03:20 | 46.65737 | 17.08318 | 29080 ft | 449 kts | 141° |
| 2026-05-05 03:20 | 46.63350 | 17.11262 | 29368 ft | 451 kts | 141° |
| 2026-05-05 03:20 | 46.60953 | 17.14221 | 29644 ft | 453 kts | 141° |
| 2026-05-05 03:21 | 46.58548 | 17.17184 | 29901 ft | 454 kts | 141° |
| 2026-05-05 03:21 | 46.56133 | 17.20153 | 30129 ft | 456 kts | 141° |
| 2026-05-05 03:21 | 46.53704 | 17.23132 | 30299 ft | 458 kts | 141° |
| 2026-05-05 03:21 | 46.51261 | 17.26124 | 30467 ft | 461 kts | 141° |
| 2026-05-05 03:22 | 46.48805 | 17.29126 | 30660 ft | 462 kts | 141° |
| 2026-05-05 03:22 | 46.46342 | 17.32135 | 30855 ft | 463 kts | 141° |
| 2026-05-05 03:22 | 46.43880 | 17.35143 | 31131 ft | 462 kts | 141° |
| 2026-05-05 03:22 | 46.41426 | 17.38137 | 31437 ft | 461 kts | 141° |
| 2026-05-05 03:23 | 46.38977 | 17.41120 | 31729 ft | 460 kts | 141° |
| 2026-05-05 03:23 | 46.36530 | 17.44098 | 32014 ft | 459 kts | 141° |
| 2026-05-05 03:23 | 46.34088 | 17.47068 | 32295 ft | 458 kts | 141° |
| 2026-05-05 03:23 | 46.31681 | 17.49992 | 32555 ft | 458 kts | 141° |
| 2026-05-05 03:24 | 46.29241 | 17.52950 | 32821 ft | 458 kts | 141° |
| 2026-05-05 03:24 | 46.26800 | 17.55904 | 33106 ft | 457 kts | 141° |
| 2026-05-05 03:24 | 46.24363 | 17.58850 | 33387 ft | 456 kts | 141° |
| 2026-05-05 03:24 | 46.21931 | 17.61790 | 33666 ft | 456 kts | 141° |
| 2026-05-05 03:25 | 46.19499 | 17.64725 | 33922 ft | 456 kts | 141° |
| 2026-05-05 03:25 | 46.17067 | 17.67657 | 34152 ft | 456 kts | 141° |
| 2026-05-05 03:25 | 46.14633 | 17.70587 | 34375 ft | 455 kts | 141° |
| 2026-05-05 03:25 | 46.12200 | 17.73507 | 34589 ft | 455 kts | 142° |
| 2026-05-05 03:26 | 46.09767 | 17.76427 | 34797 ft | 455 kts | 141° |
| 2026-05-05 03:26 | 46.07332 | 17.79344 | 35002 ft | 455 kts | 141° |
| 2026-05-05 03:26 | 46.04894 | 17.82259 | 35114 ft | 455 kts | 141° |
| 2026-05-05 03:26 | 46.02472 | 17.85152 | 35146 ft | 450 kts | 141° |
| 2026-05-05 03:27 | 45.97671 | 17.90887 | 35146 ft | 448 kts | 141° |
| 2026-05-05 03:27 | 45.93688 | 17.95643 | 35146 ft | 448 kts | 142° |
| 2026-05-05 03:28 | 45.88878 | 18.01362 | 35146 ft | 449 kts | 142° |
| 2026-05-05 03:28 | 45.84062 | 18.07076 | 35146 ft | 449 kts | 141° |
| 2026-05-05 03:29 | 45.79209 | 18.12727 | 35146 ft | 449 kts | 146° |
| 2026-05-05 03:29 | 45.73803 | 18.17140 | 35150 ft | 447 kts | 153° |
| 2026-05-05 03:30 | 45.68308 | 18.21323 | 35145 ft | 447 kts | 153° |
| 2026-05-05 03:30 | 45.62817 | 18.25520 | 35144 ft | 447 kts | 153° |
| 2026-05-05 03:31 | 45.57324 | 18.29705 | 35141 ft | 448 kts | 153° |
| 2026-05-05 03:31 | 45.51815 | 18.33870 | 35142 ft | 448 kts | 153° |
| 2026-05-05 03:32 | 45.46300 | 18.38037 | 35140 ft | 449 kts | 153° |
| 2026-05-05 03:32 | 45.40778 | 18.42203 | 35142 ft | 449 kts | 153° |
| 2026-05-05 03:33 | 45.35254 | 18.46357 | 35148 ft | 449 kts | 153° |
| 2026-05-05 03:33 | 45.29760 | 18.50485 | 35150 ft | 450 kts | 153° |
| 2026-05-05 03:34 | 45.24222 | 18.54632 | 35145 ft | 450 kts | 153° |
| 2026-05-05 03:34 | 45.18675 | 18.58776 | 35144 ft | 451 kts | 153° |
| 2026-05-05 03:35 | 45.13125 | 18.62924 | 35146 ft | 451 kts | 153° |
| 2026-05-05 03:35 | 45.07569 | 18.67066 | 35151 ft | 451 kts | 153° |
| 2026-05-05 03:36 | 45.02006 | 18.71198 | 35152 ft | 452 kts | 154° |
| 2026-05-05 03:36 | 44.96118 | 18.74165 | 35142 ft | 450 kts | 167° |
| 2026-05-05 03:37 | 44.90060 | 18.76396 | 35145 ft | 450 kts | 167° |
| 2026-05-05 03:37 | 44.83991 | 18.78645 | 35050 ft | 452 kts | 167° |
| 2026-05-05 03:38 | 44.77917 | 18.80891 | 35047 ft | 451 kts | 167° |
| 2026-05-05 03:38 | 44.71838 | 18.83124 | 35053 ft | 452 kts | 167° |
| 2026-05-05 03:39 | 44.65758 | 18.85352 | 35057 ft | 452 kts | 167° |
| 2026-05-05 03:39 | 44.59676 | 18.87578 | 35057 ft | 452 kts | 167° |
| 2026-05-05 03:40 | 44.53633 | 18.89781 | 35058 ft | 452 kts | 167° |
| 2026-05-05 03:40 | 44.47540 | 18.91993 | 35062 ft | 452 kts | 167° |
| 2026-05-05 03:41 | 44.41448 | 18.94215 | 35074 ft | 453 kts | 167° |
| 2026-05-05 03:41 | 44.35350 | 18.96437 | 35073 ft | 453 kts | 167° |
| 2026-05-05 03:42 | 44.29245 | 18.98652 | 35083 ft | 454 kts | 167° |
| 2026-05-05 03:42 | 44.23133 | 19.00862 | 35089 ft | 454 kts | 167° |
| 2026-05-05 03:43 | 44.17014 | 19.03067 | 35090 ft | 454 kts | 167° |
| 2026-05-05 03:43 | 44.10891 | 19.05275 | 35087 ft | 455 kts | 167° |
| 2026-05-05 03:44 | 44.04757 | 19.07478 | 35097 ft | 456 kts | 167° |
| 2026-05-05 03:44 | 43.98617 | 19.09673 | 35109 ft | 456 kts | 167° |
| 2026-05-05 03:45 | 43.92470 | 19.11869 | 35108 ft | 456 kts | 168° |
| 2026-05-05 03:45 | 43.86316 | 19.14067 | 35117 ft | 457 kts | 167° |
| 2026-05-05 03:46 | 43.80154 | 19.16261 | 35124 ft | 457 kts | 167° |
| 2026-05-05 03:46 | 43.74029 | 19.18442 | 35129 ft | 458 kts | 168° |
| 2026-05-05 03:47 | 43.67845 | 19.20635 | 34805 ft | 459 kts | 168° |
| 2026-05-05 03:47 | 43.64747 | 19.21730 | 34574 ft | 460 kts | 168° |
| 2026-05-05 03:47 | 43.61648 | 19.22824 | 34333 ft | 460 kts | 168° |
| 2026-05-05 03:48 | 43.58546 | 19.23922 | 34094 ft | 461 kts | 167° |
| 2026-05-05 03:48 | 43.55440 | 19.25022 | 33839 ft | 461 kts | 167° |
| 2026-05-05 03:48 | 43.52329 | 19.26121 | 33559 ft | 462 kts | 167° |
| 2026-05-05 03:48 | 43.49214 | 19.27218 | 33289 ft | 463 kts | 167° |
| 2026-05-05 03:49 | 43.46091 | 19.28313 | 33020 ft | 463 kts | 167° |
| 2026-05-05 03:49 | 43.42966 | 19.29408 | 32755 ft | 463 kts | 167° |
| 2026-05-05 03:49 | 43.39853 | 19.30500 | 32498 ft | 461 kts | 167° |
| 2026-05-05 03:49 | 43.36748 | 19.31589 | 32234 ft | 460 kts | 167° |
| 2026-05-05 03:50 | 43.33656 | 19.32675 | 31986 ft | 458 kts | 167° |
| 2026-05-05 03:50 | 43.30574 | 19.33755 | 31725 ft | 457 kts | 168° |
| 2026-05-05 03:50 | 43.27496 | 19.34832 | 31472 ft | 456 kts | 167° |
| 2026-05-05 03:50 | 43.24430 | 19.35904 | 31219 ft | 454 kts | 168° |
| 2026-05-05 03:51 | 43.21374 | 19.36967 | 30974 ft | 452 kts | 167° |
| 2026-05-05 03:51 | 43.18328 | 19.38025 | 30728 ft | 451 kts | 167° |
| 2026-05-05 03:51 | 43.15337 | 19.39062 | 30488 ft | 449 kts | 167° |
| 2026-05-05 03:51 | 43.12316 | 19.40109 | 30243 ft | 447 kts | 167° |
| 2026-05-05 03:52 | 43.09308 | 19.41156 | 29966 ft | 445 kts | 167° |
| 2026-05-05 03:52 | 43.06312 | 19.42203 | 29680 ft | 443 kts | 167° |
| 2026-05-05 03:52 | 43.03328 | 19.43246 | 29397 ft | 441 kts | 167° |
| 2026-05-05 03:52 | 43.00362 | 19.44279 | 29122 ft | 439 kts | 167° |
| 2026-05-05 03:53 | 42.97406 | 19.45304 | 28855 ft | 437 kts | 167° |
| 2026-05-05 03:53 | 42.94462 | 19.46315 | 28591 ft | 435 kts | 167° |
| 2026-05-05 03:53 | 42.91521 | 19.47321 | 28311 ft | 436 kts | 167° |
| 2026-05-05 03:53 | 42.88582 | 19.48331 | 28047 ft | 435 kts | 167° |
| 2026-05-05 03:54 | 42.85653 | 19.49339 | 27763 ft | 431 kts | 167° |
| 2026-05-05 03:54 | 42.82764 | 19.50336 | 27249 ft | 426 kts | 167° |
| 2026-05-05 03:54 | 42.79913 | 19.51322 | 26744 ft | 420 kts | 167° |
| 2026-05-05 03:54 | 42.77103 | 19.52295 | 26254 ft | 414 kts | 167° |
| 2026-05-05 03:55 | 42.74333 | 19.53251 | 25766 ft | 408 kts | 167° |
| 2026-05-05 03:55 | 42.71600 | 19.54188 | 25299 ft | 402 kts | 167° |
| 2026-05-05 03:55 | 42.68904 | 19.55107 | 24845 ft | 397 kts | 167° |
| 2026-05-05 03:55 | 42.66240 | 19.56012 | 24385 ft | 393 kts | 167° |
| 2026-05-05 03:56 | 42.63601 | 19.56910 | 23933 ft | 389 kts | 167° |
| 2026-05-05 03:56 | 42.60983 | 19.57800 | 23444 ft | 386 kts | 167° |
| 2026-05-05 03:56 | 42.58398 | 19.58680 | 22982 ft | 380 kts | 167° |
| 2026-05-05 03:56 | 42.55880 | 19.59514 | 22547 ft | 375 kts | 170° |
| 2026-05-05 03:57 | 42.53280 | 19.59896 | 22111 ft | 368 kts | 181° |
| 2026-05-05 03:57 | 42.50788 | 19.59665 | 21692 ft | 361 kts | 191° |
| 2026-05-05 03:57 | 42.48334 | 19.59006 | 21276 ft | 358 kts | 193° |
| 2026-05-05 03:57 | 42.45898 | 19.58334 | 20850 ft | 356 kts | 193° |
| 2026-05-05 03:58 | 42.43478 | 19.57671 | 20431 ft | 354 kts | 193° |
| 2026-05-05 03:58 | 42.41073 | 19.57013 | 20007 ft | 351 kts | 193° |
| 2026-05-05 03:58 | 42.38685 | 19.56356 | 19587 ft | 349 kts | 192° |
| 2026-05-05 03:58 | 42.36314 | 19.55707 | 19166 ft | 346 kts | 192° |
| 2026-05-05 03:59 | 42.33959 | 19.55068 | 18754 ft | 344 kts | 192° |
| 2026-05-05 03:59 | 42.31617 | 19.54435 | 18330 ft | 342 kts | 192° |
| 2026-05-05 03:59 | 42.29289 | 19.53805 | 17891 ft | 340 kts | 192° |
| 2026-05-05 03:59 | 42.26976 | 19.53175 | 17489 ft | 338 kts | 192° |
| 2026-05-05 04:00 | 42.24678 | 19.52548 | 17084 ft | 336 kts | 192° |
| 2026-05-05 04:00 | 42.22395 | 19.51926 | 16687 ft | 334 kts | 192° |
| 2026-05-05 04:00 | 42.20124 | 19.51308 | 16291 ft | 332 kts | 192° |
| 2026-05-05 04:00 | 42.17866 | 19.50694 | 15900 ft | 330 kts | 192° |
| 2026-05-05 04:01 | 42.15623 | 19.50083 | 15512 ft | 328 kts | 192° |
| 2026-05-05 04:01 | 42.13393 | 19.49478 | 15114 ft | 326 kts | 192° |
| 2026-05-05 04:01 | 42.11174 | 19.48877 | 14732 ft | 325 kts | 192° |
| 2026-05-05 04:01 | 42.08964 | 19.48278 | 14346 ft | 323 kts | 192° |
| 2026-05-05 04:02 | 42.06766 | 19.47682 | 13958 ft | 321 kts | 192° |
| 2026-05-05 04:02 | 42.04580 | 19.47091 | 13540 ft | 319 kts | 191° |
| 2026-05-05 04:02 | 42.02409 | 19.46504 | 13147 ft | 317 kts | 191° |
| 2026-05-05 04:02 | 42.00255 | 19.45922 | 12753 ft | 315 kts | 191° |
| 2026-05-05 04:03 | 41.98096 | 19.45559 | 12372 ft | 312 kts | 180° |
| 2026-05-05 04:03 | 41.95945 | 19.45784 | 11966 ft | 309 kts | 169° |
| 2026-05-05 04:03 | 41.93838 | 19.46305 | 11570 ft | 307 kts | 169° |
| 2026-05-05 04:03 | 41.91739 | 19.46816 | 11166 ft | 306 kts | 169° |
| 2026-05-05 04:04 | 41.89670 | 19.47308 | 10769 ft | 305 kts | 169° |
| 2026-05-05 04:04 | 41.87590 | 19.47796 | 10394 ft | 302 kts | 169° |
| 2026-05-05 04:04 | 41.85529 | 19.48278 | 10202 ft | 300 kts | 169° |
| 2026-05-05 04:04 | 41.83475 | 19.48759 | 10058 ft | 299 kts | 169° |
| 2026-05-05 04:05 | 41.81423 | 19.49243 | 9757 ft | 301 kts | 169° |
| 2026-05-05 04:05 | 41.79357 | 19.49733 | 9281 ft | 299 kts | 169° |
| 2026-05-05 04:05 | 41.77319 | 19.50218 | 8864 ft | 296 kts | 169° |
| 2026-05-05 04:05 | 41.75296 | 19.50700 | 8411 ft | 294 kts | 169° |
| 2026-05-05 04:06 | 41.73285 | 19.51178 | 7987 ft | 292 kts | 169° |
| 2026-05-05 04:06 | 41.71292 | 19.51647 | 7562 ft | 290 kts | 169° |
| 2026-05-05 04:06 | 41.69314 | 19.52112 | 7147 ft | 287 kts | 169° |
| 2026-05-05 04:06 | 41.67355 | 19.52590 | 6732 ft | 285 kts | 166° |
| 2026-05-05 04:07 | 41.65595 | 19.53703 | 6314 ft | 280 kts | 139° |
| 2026-05-05 04:07 | 41.64422 | 19.55728 | 5872 ft | 276 kts | 112° |
| 2026-05-05 04:07 | 41.64042 | 19.58235 | 5179 ft | 281 kts | 86° |
| 2026-05-05 04:07 | 41.64245 | 19.60820 | 4801 ft | 276 kts | 83° |
| 2026-05-05 04:08 | 41.64445 | 19.63310 | 4633 ft | 263 kts | 84° |
| 2026-05-05 04:08 | 41.64619 | 19.65681 | 4502 ft | 250 kts | 87° |
| 2026-05-05 04:08 | 41.64294 | 19.67884 | 4263 ft | 241 kts | 122° |
| 2026-05-05 04:08 | 41.63060 | 19.69277 | 4056 ft | 233 kts | 162° |
| 2026-05-05 04:09 | 41.61494 | 19.69500 | 3805 ft | 224 kts | 179° |
| 2026-05-05 04:09 | 41.59959 | 19.69607 | 3513 ft | 218 kts | 175° |
| 2026-05-05 04:09 | 41.58474 | 19.69789 | 3235 ft | 210 kts | 174° |
| 2026-05-05 04:09 | 41.57056 | 19.69978 | 2959 ft | 200 kts | 174° |
| 2026-05-05 04:10 | 41.55704 | 19.70160 | 2694 ft | 191 kts | 174° |
| 2026-05-05 04:10 | 41.54430 | 19.70330 | 2449 ft | 176 kts | 175° |
| 2026-05-05 04:10 | 41.53256 | 19.70487 | 2220 ft | 165 kts | 175° |
| 2026-05-05 04:10 | 41.52163 | 19.70633 | 2003 ft | 151 kts | 175° |
| 2026-05-05 04:11 | 41.51150 | 19.70768 | 1807 ft | 143 kts | 175° |
| 2026-05-05 04:11 | 41.50168 | 19.70899 | 1624 ft | 140 kts | 175° |
| 2026-05-05 04:11 | 41.49200 | 19.71028 | 1429 ft | 139 kts | 174° |
| 2026-05-05 04:11 | 41.48239 | 19.71156 | 1288 ft | 139 kts | 174° |
| 2026-05-05 04:12 | 41.47281 | 19.71284 | 1087 ft | 138 kts | 174° |
| 2026-05-05 04:12 | 41.46331 | 19.71410 | 898 ft | 137 kts | 174° |
| 2026-05-05 04:12 | 41.45388 | 19.71536 | 701 ft | 136 kts | 174° |
| 2026-05-05 04:12 | 41.44450 | 19.71661 | 522 ft | 135 kts | 174° |
| 2026-05-05 04:13 | 41.43513 | 19.71785 | 331 ft | 135 kts | 174° |
| 2026-05-05 04:13 | 41.42580 | 19.71913 | 147 ft | 135 kts | 174° |
| 2026-05-05 04:13 | 41.41776 | 19.72018 | 118 ft | 79 kts | 174° |
| 2026-05-05 04:13 | 41.41390 | 19.72067 | 120 ft | 51 kts | 174° |
| 2026-05-05 04:14 | 41.41057 | 19.72111 | 126 ft | 46 kts | 174° |
| 2026-05-05 04:14 | 41.40798 | 19.72146 | 127 ft | 23 kts | 173° |
| 2026-05-05 04:14 | 41.40684 | 19.72098 | 125 ft | 16 kts | 247° |
| 2026-05-05 04:14 | 41.40654 | 19.71949 | 128 ft | 17 kts | 256° |
| 2026-05-05 04:15 | 41.40636 | 19.71835 | 123 ft | 7 kts | 266° |
| 2026-05-05 04:15 | 41.40655 | 19.71785 | 124 ft | 6 kts | 319° |
| 2026-05-05 04:15 | 41.40691 | 19.71768 | 127 ft | 5 kts | 350° |
| 2026-05-05 04:15 | 41.40726 | 19.71762 | 123 ft | 5 kts | 353° |
| 2026-05-05 04:16 | 41.40760 | 19.71757 | 122 ft | 5 kts | 352° |
| 2026-05-05 04:16 | 41.40790 | 19.71751 | 126 ft | 4 kts | 351° |
| 2026-05-05 04:16 | 41.40833 | 19.71742 | 122 ft | 9 kts | 350° |
| 2026-05-05 04:16 | 41.40901 | 19.71726 | 125 ft | 10 kts | 350° |
| 2026-05-05 04:17 | 41.40971 | 19.71710 | 124 ft | 10 kts | 351° |
| 2026-05-05 04:17 | 41.41039 | 19.71699 | 124 ft | 10 kts | 354° |
| 2026-05-05 04:17 | 41.41084 | 19.71693 | 123 ft | 10 kts | 354° |
| 2026-05-05 04:17 | 41.41173 | 19.71682 | 123 ft | 10 kts | 355° |
| 2026-05-05 04:18 | 41.41239 | 19.71674 | 123 ft | 9 kts | 354° |
| 2026-05-05 04:18 | 41.41303 | 19.71665 | 119 ft | 9 kts | 354° |
| 2026-05-05 04:18 | 41.41357 | 19.71658 | 123 ft | 7 kts | 355° |
| 2026-05-05 04:18 | 41.41394 | 19.71654 | 119 ft | 5 kts | 355° |
| 2026-05-05 04:19 | 41.41432 | 19.71650 | 119 ft | 6 kts | 354° |
| 2026-05-05 04:19 | 41.41461 | 19.71646 | 122 ft | 7 kts | 354° |
| 2026-05-05 04:19 | 41.41513 | 19.71638 | 119 ft | 8 kts | 353° |
| 2026-05-05 04:19 | 41.41574 | 19.71629 | 120 ft | 10 kts | 353° |
| 2026-05-05 04:20 | 41.41646 | 19.71619 | 118 ft | 11 kts | 355° |
| 2026-05-05 04:20 | 41.41724 | 19.71611 | 120 ft | 10 kts | 355° |
| 2026-05-05 04:20 | 41.41784 | 19.71603 | 118 ft | 7 kts | 354° |
| 2026-05-05 04:20 | 41.41829 | 19.71597 | 118 ft | 7 kts | 354° |
| 2026-05-05 04:21 | 41.41893 | 19.71589 | 119 ft | 10 kts | 355° |
| 2026-05-05 04:21 | 41.41950 | 19.71566 | 116 ft | 7 kts | 312° |
| 2026-05-05 04:21 | 41.41958 | 19.71524 | 115 ft | 2 kts | 271° |